Decoded Metar for KBRY ( in ) (IATA:) | Meteo·Mobile Aviation Weather
aviador You're here:

KBRY Decoded Metar

in
Report Time2019-03-21 01:55:00
UTC Time2019-03-21 02:03:00
Flight Rules vfr VFR
Wind290° at 05 kt
W.Decomp.*RWY 21: 0.9 kt HW 4.9 kt RCW
RWY 20: 5.0 kt RCW
W.Rank290° ranks 20
Current wind is below 290° avg. (6.5)
Visibility9999 m
Phenomena:N/A
Clouds:N/A
Expected CloudBase > 4,400 ft AGL from Temp-Dew spread
CeilingNone
Temp11°C
Dew Point00°C (47% RH)
AAT7.2°C
QNH1016 hPa
Raw Report
METAR KBRY 210155Z AUTO 29005KT 10SM CLR 11/00 A3001 RMK AO1=

Extra information for KBRY:More info

Social comments